Time;durP1;ratioP1;P1;durP2;ratioP2;P2;SDS_P1;SDS_P2;PMS_P1;PMS_P2;Temp;Humidity;BMP_temperature;BMP_pressure;BME280_temperature;BME280_humidity;BME280_pressure;Samples;Min_cycle;Max_cycle;Signal;HPM_P1;HPM_P2
2022/02/08 00:01:18;;;;;;;4.13;2.53;;;;;;;3.43;61.97;96923.19;5133397;27;20222;-83
2022/02/08 00:03:45;;;;;;;4.77;2.00;;;;;;;3.31;62.04;96929.03;5132676;27;20226;-84
2022/02/08 00:06:25;;;;;;;4.13;2.00;;;;;;;3.30;62.24;96929.94;5132893;27;20221;-86
2022/02/08 00:08:51;;;;;;;5.57;1.80;;;;;;;3.30;62.18;96934.22;5126755;27;20287;-84
2022/02/08 00:11:19;;;;;;;3.70;2.20;;;;;;;3.34;62.27;96933.94;5133168;27;20596;-82
2022/02/08 00:13:46;;;;;;;5.63;2.00;;;;;;;3.43;62.03;96930.81;5132623;27;20798;-84
2022/02/08 00:16:12;;;;;;;4.43;2.20;;;;;;;3.44;61.83;96931.63;5132705;27;20218;-85
2022/02/08 00:18:39;;;;;;;5.53;2.20;;;;;;;3.40;61.77;96928.47;5132300;27;20218;-82
2022/02/08 00:21:06;;;;;;;4.17;2.03;;;;;;;3.41;62.03;96931.81;5132839;27;20201;-82
2022/02/08 00:23:32;;;;;;;4.57;2.00;;;;;;;3.35;62.01;96934.75;5132085;27;20219;-84
2022/02/08 00:25:59;;;;;;;4.93;2.00;;;;;;;3.35;62.44;96942.38;5132315;27;20219;-86
2022/02/08 00:28:26;;;;;;;4.00;2.03;;;;;;;3.35;61.88;96943.22;5132367;27;20210;-85
2022/02/08 00:30:53;;;;;;;4.53;2.00;;;;;;;3.44;62.33;96939.28;5126582;27;20314;-83
2022/02/08 00:33:19;;;;;;;4.53;2.13;;;;;;;3.43;62.00;96948.63;5132485;27;20228;-82
2022/02/08 00:35:46;;;;;;;6.57;2.10;;;;;;;3.51;61.61;96949.84;5131771;27;20279;-84
2022/02/08 00:38:12;;;;;;;3.27;2.20;;;;;;;3.36;61.85;96949.13;5132717;27;20215;-85
2022/02/08 00:40:39;;;;;;;2.17;1.90;;;;;;;3.29;62.36;96945.31;5132183;27;20817;-84
2022/02/08 00:43:08;;;;;;;4.33;1.83;;;;;;;3.30;62.65;96947.78;5132587;27;20719;-86
2022/02/08 00:45:48;;;;;;;6.00;2.30;;;;;;;3.35;62.45;96945.75;5131534;27;20227;-84
2022/02/08 00:48:18;;;;;;;4.80;2.70;;;;;;;3.37;62.38;96945.66;5132423;27;20289;-84
2022/02/08 00:50:49;;;;;;;4.10;1.87;;;;;;;3.40;62.01;96945.47;5131341;27;20202;-83
2022/02/08 00:53:16;;;;;;;2.30;1.73;;;;;;;3.41;62.09;96952.19;5132527;27;20209;-84
2022/02/08 00:55:43;;;;;;;4.37;2.10;;;;;;;3.36;62.41;96939.75;5130600;27;20219;-84
2022/02/08 00:58:09;;;;;;;4.27;2.03;;;;;;;3.34;62.74;96946.66;5132267;27;20219;-85
2022/02/08 01:00:38;;;;;;;4.60;2.00;;;;;;;3.39;62.16;96946.38;5132049;27;20202;-84
2022/02/08 01:03:05;;;;;;;3.77;1.97;;;;;;;3.32;62.25;96945.94;5132248;27;20214;-86
2022/02/08 01:05:32;;;;;;;5.63;2.13;;;;;;;3.32;62.44;96953.59;5130825;27;20253;-87
2022/02/08 01:07:59;;;;;;;3.00;1.70;;;;;;;3.32;62.59;96948.50;5131745;27;20762;-85
2022/02/08 01:10:30;;;;;;;5.57;2.17;;;;;;;3.32;62.81;96951.03;5131233;27;20207;-84
2022/02/08 01:12:56;;;;;;;4.17;2.00;;;;;;;3.37;62.82;96953.28;5125535;27;20190;-85
2022/02/08 01:15:22;;;;;;;5.23;2.30;;;;;;;3.41;62.24;96947.09;5130939;27;20195;-84
2022/02/08 01:17:55;;;;;;;4.63;1.97;;;;;;;3.44;62.02;96952.00;5131710;27;20632;-86
2022/02/08 01:20:29;;;;;;;3.03;2.00;;;;;;;3.42;62.25;96957.19;5131492;27;20195;-82
2022/02/08 01:22:56;;;;;;;4.50;2.00;;;;;;;3.41;62.36;96955.56;5125987;27;20194;-85
2022/02/08 01:25:29;;;;;;;4.10;1.97;;;;;;;3.39;62.26;96952.28;5130741;27;20194;-85
2022/02/08 01:28:03;;;;;;;3.40;2.20;;;;;;;3.33;62.63;96951.84;5128359;27;20195;-84
2022/02/08 01:30:43;;;;;;;5.60;2.27;;;;;;;3.34;62.81;96954.31;5131824;27;20194;-85
2022/02/08 01:33:34;;;;;;;9.10;2.30;;;;;;;3.31;62.38;96964.69;5131646;27;20728;-83
2022/02/08 01:36:24;;;;;;;3.50;1.87;;;;;;;3.24;62.37;96965.19;5131331;27;20594;-86
2022/02/08 01:38:56;;;;;;;3.63;1.87;;;;;;;3.25;62.70;96966.81;5131339;27;20214;-85
2022/02/08 01:41:34;;;;;;;4.23;1.93;;;;;;;3.29;62.56;96960.59;5131727;27;20562;-84
2022/02/08 01:44:12;;;;;;;4.27;1.80;;;;;;;3.31;62.42;96957.03;5125699;27;20214;-84
2022/02/08 01:46:55;;;;;;;5.57;2.20;;;;;;;3.31;62.31;96962.13;5130732;27;20214;-84
2022/02/08 01:49:33;;;;;;;4.23;1.93;;;;;;;3.31;62.13;96957.03;5130961;27;20769;-87
2022/02/08 01:52:00;;;;;;;4.00;1.90;;;;;;;3.29;62.00;96960.59;5125362;27;20198;-85
2022/02/08 01:54:28;;;;;;;5.17;1.90;;;;;;;3.29;62.56;96969.03;5131072;27;20187;-86
2022/02/08 01:56:55;;;;;;;4.83;1.80;;;;;;;3.30;62.21;96969.88;5130916;27;20337;-85
2022/02/08 01:59:23;;;;;;;8.17;2.50;;;;;;;3.30;62.68;96963.03;5131297;27;20722;-82
2022/02/08 02:01:49;;;;;;;5.80;2.00;;;;;;;3.34;62.60;96967.03;5130021;27;20195;-83
2022/02/08 02:04:16;;;;;;;2.77;1.73;;;;;;;3.36;62.47;96965.22;5130855;27;20218;-86
2022/02/08 02:06:44;;;;;;;4.83;2.23;;;;;;;3.38;62.13;96955.75;5130552;27;20275;-85
2022/02/08 02:09:10;;;;;;;3.63;1.70;;;;;;;3.33;62.09;96957.75;5130912;27;20272;-84
2022/02/08 02:11:37;;;;;;;3.87;2.10;;;;;;;3.35;62.32;96955.13;5131393;27;20191;-85
2022/02/08 02:14:03;;;;;;;6.43;2.10;;;;;;;3.35;62.70;96950.84;5130964;27;20556;-84
2022/02/08 02:16:40;;;;;;;4.53;1.70;;;;;;;3.39;62.31;96954.00;5130206;27;20217;-84
2022/02/08 02:19:07;;;;;;;4.93;2.23;;;;;;;3.36;62.32;96947.38;5131183;27;20696;-85
2022/02/08 02:21:33;;;;;;;3.20;1.90;;;;;;;3.39;62.32;96954.00;5131755;27;20194;-83
2022/02/08 02:24:01;;;;;;;5.77;2.13;;;;;;;3.35;62.55;96944.94;5131323;28;20272;-84
2022/02/08 02:26:27;;;;;;;5.23;1.87;;;;;;;3.36;62.27;96949.13;5129599;28;20242;-85
2022/02/08 02:28:54;;;;;;;6.70;2.07;;;;;;;3.32;62.54;96945.94;5130500;27;20210;-86
2022/02/08 02:31:20;;;;;;;5.77;1.97;;;;;;;3.15;62.77;96951.28;5130912;28;20239;-85
2022/02/08 02:33:47;;;;;;;3.57;2.10;;;;;;;3.21;62.60;96950.09;5130178;28;20194;-82
2022/02/08 02:36:14;;;;;;;4.07;1.50;;;;;;;3.25;62.67;96959.19;5130293;28;20214;-84
2022/02/08 02:38:40;;;;;;;5.17;1.60;;;;;;;3.23;62.61;96964.38;5131051;28;20230;-84
2022/02/08 02:41:08;;;;;;;2.10;1.57;;;;;;;3.24;62.87;96970.28;5130948;28;20194;-85
2022/02/08 02:43:34;;;;;;;5.60;2.27;;;;;;;3.16;62.88;96975.03;5130050;28;20425;-85
2022/02/08 02:46:02;;;;;;;4.13;1.73;;;;;;;3.26;62.93;96971.81;5129991;28;20219;-85
2022/02/08 02:48:29;;;;;;;6.57;1.87;;;;;;;3.30;62.93;96964.78;5130590;28;20249;-85
2022/02/08 02:50:56;;;;;;;6.83;1.60;;;;;;;3.33;62.37;96957.75;5130658;28;20403;-83
2022/02/08 02:53:25;;;;;;;3.47;1.73;;;;;;;3.36;62.73;96955.03;5130497;28;20248;-87
2022/02/08 02:55:52;;;;;;;4.03;1.60;;;;;;;3.38;62.60;96963.38;5129483;28;20732;-84
2022/02/08 02:58:23;;;;;;;2.47;1.40;;;;;;;3.38;62.37;96957.47;5130318;28;20380;-85
2022/02/08 03:01:03;;;;;;;4.03;1.60;;;;;;;3.39;62.07;96954.00;5130687;28;20591;-82
2022/02/08 03:03:43;;;;;;;2.77;1.50;;;;;;;3.41;62.21;96954.75;5130191;28;20195;-84
2022/02/08 03:19:58;;;;;;;3.13;1.40;;;;;;;3.42;61.79;96972.47;5084629;27;20230;-86
2022/02/08 03:22:24;;;;;;;3.67;1.50;;;;;;;3.39;61.64;96979.47;5133849;27;20187;-84
2022/02/08 03:24:51;;;;;;;3.27;1.73;;;;;;;3.44;61.77;96975.72;5133431;27;20214;-84
2022/02/08 03:27:17;;;;;;;3.17;1.40;;;;;;;3.45;61.54;96984.19;5132382;27;20222;-85
2022/02/08 03:29:45;;;;;;;2.90;1.63;;;;;;;3.48;61.28;96983.97;5133334;27;20225;-86
2022/02/08 03:32:13;;;;;;;3.27;1.40;;;;;;;3.56;61.07;96981.75;5133736;27;20264;-84
2022/02/08 03:34:40;;;;;;;3.27;1.43;;;;;;;3.57;61.24;96983.38;5132573;27;20278;-84
2022/02/08 03:37:06;;;;;;;4.17;1.30;;;;;;;3.57;60.92;96993.56;5133261;27;20221;-85
2022/02/08 03:39:37;;;;;;;4.93;1.90;;;;;;;3.58;60.98;96986.75;5133600;27;20731;-84
2022/02/08 03:42:09;;;;;;;3.20;1.63;;;;;;;3.65;60.77;96985.44;5127389;27;20286;-84
2022/02/08 03:44:36;;;;;;;3.43;1.50;;;;;;;3.62;61.15;96998.38;5133262;27;20226;-84
2022/02/08 03:47:06;;;;;;;5.47;1.60;;;;;;;3.60;60.65;96984.91;5132917;27;20226;-84
2022/02/08 03:49:33;;;;;;;4.40;1.70;;;;;;;3.63;60.76;96988.09;5133372;27;20218;-86
2022/02/08 03:52:04;;;;;;;3.67;1.40;;;;;;;3.55;60.47;96976.75;5133707;27;20192;-84
2022/02/08 03:54:31;;;;;;;5.53;1.70;;;;;;;3.61;60.55;96981.47;5133111;27;20204;-84
2022/02/08 03:56:58;;;;;;;2.50;1.40;;;;;;;3.45;60.82;96974.00;5133080;27;20234;-84
2022/02/08 03:59:24;;;;;;;2.20;1.27;;;;;;;3.42;60.74;96986.91;5132846;27;20203;-85
2022/02/08 04:04:48;;;;;;;3.83;1.60;;;;;;;3.55;61.27;96981.84;5132770;27;20229;-84
2022/02/08 04:07:18;;;;;;;2.43;1.47;;;;;;;3.57;61.35;96980.84;5127842;27;20214;-86
2022/02/08 04:09:47;;;;;;;2.83;1.30;;;;;;;3.54;61.11;96986.13;5132592;27;20747;-85
2022/02/08 04:12:19;;;;;;;3.57;1.50;;;;;;;3.65;61.00;96985.44;5133309;27;20194;-84
2022/02/08 04:14:51;;;;;;;4.03;1.10;;;;;;;3.67;60.51;96986.94;5132977;27;20206;-84
2022/02/08 04:17:30;;;;;;;1.40;1.20;;;;;;;3.64;60.47;96983.81;5132667;27;20630;-83
2022/02/08 04:34:01;;;;;;;4.83;1.50;;;;;;;3.66;60.49;96982.78;5115873;27;20237;-84
2022/02/08 04:36:58;;;;;;;2.20;1.33;;;;;;;3.64;60.08;96987.19;5131975;27;20222;-84
2022/02/08 04:39:42;;;;;;;6.03;1.67;;;;;;;3.68;60.51;96990.31;5133171;27;20233;-85
2022/02/08 04:42:17;;;;;;;4.83;1.70;;;;;;;3.71;60.13;96996.03;5133029;27;20278;-84
2022/02/08 04:44:48;;;;;;;4.47;1.57;;;;;;;3.59;60.11;96996.84;5131741;27;20309;-84
2022/02/08 04:47:19;;;;;;;2.87;1.37;;;;;;;3.67;60.05;96993.78;5132013;27;20214;-84
2022/02/08 04:49:46;;;;;;;3.47;1.20;;;;;;;3.70;60.49;96991.03;5132852;27;20210;-83
2022/02/08 04:52:16;;;;;;;2.20;1.20;;;;;;;3.63;60.08;96997.47;5132405;27;20239;-86
2022/02/08 04:54:49;;;;;;;4.83;1.40;;;;;;;3.63;60.47;97003.38;5133217;27;20191;-86
2022/02/08 04:57:21;;;;;;;2.63;1.23;;;;;;;3.72;60.05;97005.31;5133921;27;20246;-86
2022/02/08 05:00:14;;;;;;;3.80;1.43;;;;;;;3.75;59.74;97001.75;5133418;27;20264;-85
2022/02/08 05:28:00;;;;;;;4.70;1.20;;;;;;;4.06;59.25;96980.97;5127463;27;20758;-83
2022/02/08 05:35:45;;;;;;;3.50;1.63;;;;;;;3.74;60.38;96965.28;5115592;27;20225;-86
2022/02/08 05:41:39;;;;;;;3.13;1.43;;;;;;;3.62;60.56;96968.63;5135796;27;20198;-85
2022/02/08 05:44:27;;;;;;;3.57;1.23;;;;;;;3.65;60.12;96970.97;5131694;27;20218;-87
2022/02/08 05:46:54;;;;;;;5.27;1.50;;;;;;;3.66;60.19;96966.69;5123654;27;20223;-87
2022/02/08 05:49:38;;;;;;;1.60;1.20;;;;;;;3.66;59.83;96969.22;5125730;27;20218;-87
2022/02/08 05:54:54;;;;;;;6.23;1.40;;;;;;;3.69;59.34;96969.84;5125426;27;21992;-87
2022/02/08 05:57:22;;;;;;;4.47;1.23;;;;;;;3.76;59.50;96977.91;5125987;27;20219;-89
2022/02/08 05:59:50;;;;;;;3.43;1.40;;;;;;;3.71;59.67;96970.56;5124439;27;20461;-86
2022/02/08 06:02:18;;;;;;;3.70;1.70;;;;;;;3.79;59.38;96981.06;5126664;27;20206;-86
2022/02/08 06:04:45;;;;;;;4.80;1.33;;;;;;;3.91;59.59;96974.34;5135294;27;20275;-87
2022/02/08 06:07:16;;;;;;;3.10;1.53;;;;;;;3.90;58.99;96982.91;5135234;27;20222;-87
2022/02/08 06:09:42;;;;;;;2.33;1.50;;;;;;;3.80;59.03;96987.81;5135329;27;20218;-87
2022/02/08 06:12:10;;;;;;;2.80;1.27;;;;;;;3.87;58.98;96989.94;5122030;27;20202;-86
2022/02/08 06:14:41;;;;;;;6.17;1.57;;;;;;;3.87;59.24;96990.75;5135427;27;20202;-88
2022/02/08 06:17:07;;;;;;;1.73;1.30;;;;;;;3.78;58.90;96986.28;5135160;27;20604;-87
2022/02/08 06:19:34;;;;;;;5.10;1.23;;;;;;;3.87;59.46;96989.94;5135066;27;20728;-87
2022/02/08 06:22:00;;;;;;;3.00;1.23;;;;;;;3.89;59.26;96985.56;5136109;27;20195;-85
2022/02/08 06:24:27;;;;;;;4.33;1.50;;;;;;;3.91;59.36;96982.00;5134882;27;20218;-84
2022/02/08 06:26:53;;;;;;;4.10;1.67;;;;;;;3.99;59.05;96986.59;5122983;27;20231;-86
2022/02/08 06:29:22;;;;;;;2.57;1.40;;;;;;;3.96;59.03;96991.88;5114034;28;20220;-84
2022/02/08 06:31:50;;;;;;;2.40;1.20;;;;;;;3.95;59.26;96996.16;5114823;28;20207;-86
2022/02/08 06:34:21;;;;;;;2.97;1.40;;;;;;;3.99;59.10;96996.78;5114350;28;20206;-83
2022/02/08 06:36:48;;;;;;;3.37;1.80;;;;;;;4.00;59.40;96996.69;5114856;28;20227;-85
2022/02/08 06:39:19;;;;;;;3.93;1.40;;;;;;;3.97;61.04;96999.44;5114420;28;20231;-86
2022/02/08 06:41:46;;;;;;;5.33;1.40;;;;;;;3.97;59.32;96998.63;5114592;28;20206;-85
2022/02/08 06:44:12;;;;;;;10.13;4.43;;;;;;;3.96;58.86;97008.00;5114422;28;20195;-84
2022/02/08 06:46:39;;;;;;;4.13;1.70;;;;;;;4.01;58.95;96995.78;5115289;27;20227;-86
2022/02/08 06:49:06;;;;;;;4.40;1.60;;;;;;;4.07;59.02;96997.91;5131464;27;20215;-84
2022/02/08 06:51:33;;;;;;;2.17;1.37;;;;;;;4.09;58.79;97005.44;5119184;28;20196;-85
2022/02/08 06:53:59;;;;;;;3.43;1.40;;;;;;;4.04;58.92;97003.19;5118029;28;20196;-85
2022/02/08 06:56:26;;;;;;;4.33;1.50;;;;;;;4.03;58.65;96998.22;5118078;28;20223;-84
2022/02/08 06:59:02;;;;;;;4.77;1.60;;;;;;;4.08;59.14;97004.63;5118451;28;20219;-86
2022/02/08 07:01:32;;;;;;;3.57;1.40;;;;;;;4.08;58.62;97011.47;5126226;27;20206;-84
2022/02/08 07:03:59;;;;;;;3.13;1.30;;;;;;;4.04;58.49;97005.75;5137806;27;20199;-84
2022/02/08 07:06:27;;;;;;;5.30;1.70;;;;;;;4.09;58.82;97005.44;5137666;27;20239;-85
2022/02/08 07:08:53;;;;;;;3.23;1.30;;;;;;;4.13;58.56;97015.34;5136634;27;20237;-84
2022/02/08 07:11:20;;;;;;;6.63;1.90;;;;;;;4.09;58.34;97008.81;5126493;27;20183;-84
2022/02/08 07:13:48;;;;;;;4.97;1.77;;;;;;;4.10;58.59;97012.19;5139194;27;20198;-83
2022/02/08 07:16:15;;;;;;;2.27;1.50;;;;;;;4.12;59.13;97005.25;5134622;27;20218;-83
2022/02/08 07:18:44;;;;;;;3.17;1.40;;;;;;;4.10;58.23;97009.63;5136319;27;20244;-82
2022/02/08 07:21:12;;;;;;;4.27;1.33;;;;;;;4.05;57.92;97011.66;5136630;27;20227;-86
2022/02/08 07:23:40;;;;;;;5.23;1.43;;;;;;;4.01;57.92;97015.34;5135716;27;20195;-86
2022/02/08 07:26:07;;;;;;;3.17;1.50;;;;;;;4.10;57.97;97007.06;5131518;27;20222;-83
2022/02/08 07:28:39;;;;;;;2.67;1.30;;;;;;;4.08;57.80;97014.00;5136796;27;20787;-87
2022/02/08 07:31:13;;;;;;;3.90;1.60;;;;;;;4.10;57.44;97020.63;5136085;27;20198;-86
2022/02/08 07:33:44;;;;;;;2.67;1.27;;;;;;;4.09;57.73;97016.47;5135668;27;20222;-87
2022/02/08 07:36:19;;;;;;;5.60;1.60;;;;;;;4.19;57.35;97014.13;5135127;27;20226;-86
2022/02/08 07:38:47;;;;;;;2.60;1.43;;;;;;;4.19;57.81;97021.78;5136990;27;20237;-86
2022/02/08 07:43:57;;;;;;;2.70;1.37;;;;;;;4.10;57.39;97018.09;5135109;27;20302;-87
2022/02/08 07:46:24;;;;;;;4.50;1.50;;;;;;;4.12;57.26;97025.63;5134944;27;20231;-86
2022/02/08 07:48:50;;;;;;;5.77;1.50;;;;;;;4.18;57.28;97026.97;5134800;27;20215;-86
2022/02/08 07:51:19;;;;;;;2.43;1.40;;;;;;;4.14;57.26;97024.63;5136008;27;20186;-87
2022/02/08 07:53:47;;;;;;;2.50;1.53;;;;;;;4.20;57.38;97022.59;5135081;27;20850;-86
2022/02/08 07:56:15;;;;;;;3.23;1.23;;;;;;;4.20;57.23;97025.16;5134459;27;20234;-87
2022/02/08 07:58:42;;;;;;;3.90;1.40;;;;;;;4.26;57.24;97025.53;5134014;27;20222;-87
2022/02/08 08:01:08;;;;;;;5.13;1.27;;;;;;;4.24;56.92;97029.91;5134422;27;20195;-87
2022/02/08 08:03:40;;;;;;;4.37;1.53;;;;;;;4.35;57.22;97030.03;5135083;27;20251;-84
2022/02/08 08:06:07;;;;;;;8.07;1.53;;;;;;;4.44;56.86;97023.47;5133239;27;20764;-84
2022/02/08 08:08:34;;;;;;;3.07;1.30;;;;;;;4.43;56.60;97032.06;5134396;27;20366;-86
2022/02/08 08:11:03;;;;;;;5.07;1.77;;;;;;;4.47;56.39;97020.72;5131548;27;20226;-87
2022/02/08 08:13:37;;;;;;;2.57;1.27;;;;;;;4.38;56.07;97022.19;5134320;27;20198;-87
2022/02/08 08:16:13;;;;;;;3.53;1.57;;;;;;;4.46;55.78;97017.38;5133949;27;20214;-84
2022/02/08 08:18:55;;;;;;;3.80;1.30;;;;;;;4.52;55.11;97011.03;5134170;27;20242;-86
2022/02/08 08:21:22;;;;;;;4.53;1.40;;;;;;;4.59;54.96;97011.44;5128027;27;20187;-87
2022/02/08 08:23:48;;;;;;;4.03;1.70;;;;;;;4.58;54.53;97020.84;5133634;27;20194;-87
2022/02/08 08:26:16;;;;;;;4.50;1.47;;;;;;;4.61;54.56;97007.06;5132528;27;20222;-86
2022/02/08 08:28:43;;;;;;;3.43;1.40;;;;;;;4.63;53.90;97008.56;5133750;27;20563;-88
2022/02/08 08:31:09;;;;;;;5.10;2.53;;;;;;;4.74;53.96;97005.28;5131428;27;20195;-87
2022/02/08 08:33:35;;;;;;;2.90;1.73;;;;;;;4.76;53.47;97001.72;5130253;27;20198;-87
2022/02/08 08:36:02;;;;;;;2.97;1.60;;;;;;;4.81;52.55;97002.19;5132706;27;20237;-87
2022/02/08 08:38:31;;;;;;;4.73;1.50;;;;;;;4.86;52.26;96999.34;5132656;27;20246;-87
2022/02/08 08:41:04;;;;;;;3.43;1.30;;;;;;;4.92;52.46;97009.13;5132589;27;20187;-88
2022/02/08 08:43:55;;;;;;;3.73;1.43;;;;;;;4.91;51.79;97017.69;5133788;27;20645;-84
2022/02/08 08:51:49;;;;;;;1.37;1.00;;;;;;;4.94;50.84;97012.38;5131351;27;20273;-84
2022/02/08 08:54:16;;;;;;;3.87;1.17;;;;;;;4.93;50.03;97017.59;5132747;27;20191;-83
2022/02/08 08:56:44;;;;;;;3.23;0.93;;;;;;;4.99;49.91;97018.00;5132994;27;20195;-87
2022/02/08 08:59:14;;;;;;;2.10;1.10;;;;;;;5.06;48.82;97015.81;5131089;27;20237;-86
2022/02/08 09:01:41;;;;;;;1.37;1.10;;;;;;;5.07;48.90;97015.72;5132690;27;20226;-87
2022/02/08 09:04:08;;;;;;;2.43;1.20;;;;;;;5.42;51.99;97012.41;5132561;27;20191;-88
2022/02/08 09:06:35;;;;;;;7.60;4.37;;;;;;;5.52;48.63;97005.72;5133330;27;20267;-87
2022/02/08 09:09:04;;;;;;;2.70;1.57;;;;;;;5.48;48.58;96999.19;5131921;27;20226;-85
2022/02/08 09:11:38;;;;;;;1.90;1.33;;;;;;;5.47;47.90;97000.13;5129279;27;20673;-87
2022/02/08 09:14:10;;;;;;;2.70;1.30;;;;;;;5.45;47.85;97004.53;5131827;27;20191;-88
2022/02/08 09:16:43;;;;;;;3.67;1.40;;;;;;;5.41;46.42;97005.66;5132437;27;20190;-86
2022/02/08 09:19:33;;;;;;;3.03;1.10;;;;;;;5.49;46.06;96993.97;5132045;27;20312;-87
2022/02/08 09:22:26;;;;;;;2.63;1.10;;;;;;;5.60;46.27;96988.09;5132412;27;20198;-87
2022/02/08 09:25:07;;;;;;;2.70;1.20;;;;;;;5.69;45.34;96992.53;5132307;27;20248;-85
2022/02/08 09:28:02;;;;;;;2.30;1.47;;;;;;;5.89;45.90;96991.94;5132271;27;20298;-87
2022/02/08 09:30:37;;;;;;;2.43;1.00;;;;;;;6.20;44.48;97002.44;5131509;27;20298;-84
2022/02/08 09:33:05;;;;;;;2.77;1.13;;;;;;;6.55;44.32;96997.22;5131300;27;20207;-85
2022/02/08 09:35:32;;;;;;;2.60;1.23;;;;;;;6.62;43.52;96998.38;5131446;27;20205;-89
2022/02/08 09:37:58;;;;;;;2.87;1.20;;;;;;;6.80;42.99;96998.72;5128427;27;20191;-86
2022/02/08 09:40:25;;;;;;;1.30;1.20;;;;;;;7.03;41.83;96996.94;5125259;27;20222;-86
2022/02/08 09:42:54;;;;;;;2.27;1.20;;;;;;;7.10;42.12;96993.78;5132550;27;20197;-87
2022/02/08 09:45:23;;;;;;;3.90;1.40;;;;;;;7.18;41.31;96998.28;5129624;27;20187;-88
2022/02/08 09:47:56;;;;;;;0.93;0.87;;;;;;;7.36;40.44;96998.59;5130894;27;20243;-87
2022/02/08 09:50:27;;;;;;;3.47;1.13;;;;;;;7.22;40.65;97008.19;5131330;27;20218;-87
2022/02/08 09:52:57;;;;;;;4.50;1.30;;;;;;;7.47;40.84;96994.25;5130115;27;20186;-88
2022/02/08 09:55:25;;;;;;;2.70;1.17;;;;;;;7.66;41.19;96991.03;5132363;27;20639;-88
2022/02/08 09:57:51;;;;;;;2.27;1.10;;;;;;;7.36;39.44;96980.66;5131455;27;20194;-86
2022/02/08 10:00:20;;;;;;;1.50;0.90;;;;;;;7.27;40.16;97000.16;5130703;27;20246;-87
2022/02/08 10:02:46;;;;;;;1.10;0.87;;;;;;;7.37;39.65;97005.34;5131558;27;20210;-87
2022/02/08 10:05:13;;;;;;;1.75;1.00;;;;;;;7.59;39.94;96988.13;5131175;27;20194;-88
2022/02/08 10:07:41;;;;;;;2.07;1.10;;;;;;;7.60;39.57;97006.88;5130323;27;20592;-88
2022/02/08 10:10:10;;;;;;;2.30;1.20;;;;;;;7.76;39.01;96993.66;5129418;27;20226;-88
2022/02/08 10:12:59;;;;;;;3.00;1.30;;;;;;;7.66;39.17;96993.59;5128357;27;20558;-87
2022/02/08 10:23:59;;;;;;;1.97;1.00;;;;;;;7.48;40.01;96993.31;5129760;27;20726;-87
2022/02/08 10:26:33;;;;;;;2.73;1.23;;;;;;;7.52;40.41;96988.72;5127611;27;20305;-87
2022/02/08 10:29:06;;;;;;;1.77;1.00;;;;;;;7.54;39.90;96994.56;5129477;27;20241;-86
2022/02/08 10:40:01;;;;;;;2.20;1.10;;;;;;;7.69;40.53;96977.97;5130607;28;20806;-85
2022/02/08 10:42:29;;;;;;;3.93;0.87;;;;;;;7.69;41.47;96977.97;5131464;28;20247;-88
2022/02/08 10:44:56;;;;;;;2.17;0.90;;;;;;;7.56;41.75;96960.19;5125365;28;20194;-87
2022/02/08 10:47:33;;;;;;;1.00;0.90;;;;;;;7.57;42.25;96968.69;5131328;28;20215;-86
2022/02/08 10:50:01;;;;;;;1.43;1.10;;;;;;;7.45;41.67;96962.81;5129355;27;20261;-86
2022/02/08 10:52:28;;;;;;;1.87;0.90;;;;;;;7.41;42.33;96956.28;5130794;28;20186;-87
2022/02/08 10:54:58;;;;;;;11.00;7.87;;;;;;;7.48;42.28;96954.88;5129613;28;20199;-86
2022/02/08 10:57:33;;;;;;;2.03;1.03;;;;;;;7.43;41.79;96953.63;5130680;28;20194;-87
2022/02/08 11:00:04;;;;;;;1.70;0.90;;;;;;;7.50;41.07;96970.13;5129088;28;20271;-86
2022/02/08 11:02:36;;;;;;;2.00;0.90;;;;;;;7.57;40.19;96953.31;5130293;28;20227;-87
2022/02/08 11:05:15;;;;;;;2.20;1.30;;;;;;;7.65;40.16;96955.25;5123815;28;20680;-87
2022/02/08 11:07:58;;;;;;;1.23;0.83;;;;;;;7.70;40.18;96951.38;5130539;28;20214;-88
2022/02/08 11:10:44;;;;;;;0.80;0.80;;;;;;;7.77;39.18;96949.13;5126433;28;20329;-85
2022/02/08 11:13:31;;;;;;;1.10;1.00;;;;;;;7.87;38.71;96943.13;5130977;28;20298;-84
2022/02/08 11:16:15;;;;;;;3.23;0.97;;;;;;;8.01;37.27;96943.75;5131570;28;20195;-87
2022/02/08 11:19:03;;;;;;;0.80;0.80;;;;;;;8.47;37.16;96936.41;5130005;28;20727;-85
2022/02/08 11:21:40;;;;;;;3.80;1.33;;;;;;;8.64;36.29;96927.28;5125866;28;20199;-86
2022/02/08 11:24:23;;;;;;;1.30;0.90;;;;;;;8.80;35.93;96926.78;5129786;28;20195;-87
2022/02/08 11:26:55;;;;;;;1.57;0.80;;;;;;;8.96;36.15;96927.88;5129969;28;20781;-87
2022/02/08 11:29:30;;;;;;;1.27;0.93;;;;;;;9.06;35.86;96938.16;5128701;28;20236;-86
2022/02/08 11:32:02;;;;;;;1.13;1.00;;;;;;;8.81;35.04;96924.06;5128624;28;20214;-86
2022/02/08 11:43:35;;;;;;;4.63;1.00;;;;;;;8.96;35.39;96899.63;5076964;28;20581;-87
2022/02/08 11:46:14;;;;;;;1.40;1.07;;;;;;;9.47;36.36;96905.41;5092707;28;20755;-85
2022/02/08 11:49:00;;;;;;;1.93;1.17;;;;;;;9.78;34.87;96891.44;5092394;28;20231;-86
2022/02/08 11:51:47;;;;;;;3.00;1.33;;;;;;;9.83;34.92;96891.81;5112993;28;20275;-88
2022/02/08 11:54:36;;;;;;;0.90;0.73;;;;;;;10.10;35.43;96901.34;5118930;27;20624;-88
2022/02/08 12:00:15;;;;;;;1.10;0.73;;;;;;;10.40;33.79;96895.16;5112584;28;20239;-86
2022/02/08 12:03:13;;;;;;;0.93;0.73;;;;;;;10.54;34.14;96894.69;5131416;27;20198;-84
2022/02/08 12:06:00;;;;;;;1.50;0.70;;;;;;;10.64;34.84;96900.59;5133295;27;20332;-88
2022/02/08 12:08:26;;;;;;;1.50;0.80;;;;;;;10.51;32.96;96900.13;5133428;27;20265;-89
2022/02/08 12:11:04;;;;;;;1.77;0.83;;;;;;;10.80;33.78;96904.28;5132751;27;20230;-86
2022/02/08 12:26:59;;;;;;;1.67;0.80;;;;;;;10.85;34.13;96910.63;5132081;27;20183;-86
2022/02/08 12:33:22;;;;;;;1.33;0.80;;;;;;;10.57;33.74;96896.19;5133684;27;20252;-88
2022/02/08 12:36:14;;;;;;;0.70;0.70;;;;;;;10.83;33.85;96902.25;5127797;27;20195;-87
2022/02/08 12:53:13;;;;;;;1.27;0.80;;;;;;;10.46;32.06;96878.34;5121424;27;20230;-87
2022/02/08 12:58:25;;;;;;;0.80;0.80;;;;;;;10.37;32.05;96864.56;5120580;27;20197;-87
2022/02/08 13:01:17;;;;;;;1.73;0.90;;;;;;;10.37;32.06;96856.84;5120816;27;21164;-86
2022/02/08 13:03:54;;;;;;;1.30;0.83;;;;;;;10.31;31.85;96857.41;5120270;27;20191;-87
2022/02/08 14:01:41;;;;;;;0.60;0.60;;;;;;;11.48;31.79;96833.22;5130371;27;20256;-86
2022/02/08 14:07:08;;;;;;;3.50;0.90;;;;;;;11.02;32.31;96839.44;5125463;27;20707;-86
2022/02/08 14:15:29;;;;;;;0.93;0.70;;;;;;;10.95;33.03;96838.44;5125976;27;20228;-86
2022/02/08 14:18:04;;;;;;;0.80;0.73;;;;;;;10.84;33.07;96833.50;5127819;27;20207;-88
2022/02/08 14:20:57;;;;;;;1.20;0.73;;;;;;;10.89;33.88;96832.09;5131783;27;21023;-88
2022/02/08 14:23:50;;;;;;;2.53;0.70;;;;;;;10.86;33.68;96832.38;5131053;27;20565;-83
2022/02/08 14:32:05;;;;;;;0.77;0.63;;;;;;;10.75;34.00;96824.09;5103987;28;20203;-87
2022/02/08 14:35:09;;;;;;;0.83;0.70;;;;;;;10.63;34.67;96816.56;5109583;28;20205;-85
2022/02/08 15:07:59;;;;;;;0.70;0.70;;;;;;;10.36;33.35;96816.59;5128102;27;20226;-88
2022/02/08 15:10:33;;;;;;;12.57;8.77;;;;;;;10.32;33.49;96821.22;5131166;27;20226;-86
2022/02/08 15:13:01;;;;;;;2.13;1.40;;;;;;;10.43;33.69;96804.75;5111593;28;20198;-88
2022/02/08 15:15:33;;;;;;;1.17;0.80;;;;;;;10.56;34.06;96807.00;5120021;27;20230;-88
2022/02/08 15:18:00;;;;;;;1.30;0.80;;;;;;;10.60;33.53;96809.09;5132199;27;20194;-87
2022/02/08 15:20:28;;;;;;;0.77;0.77;;;;;;;10.53;33.97;96815.81;5135047;27;20583;-85
2022/02/08 15:23:04;;;;;;;0.83;0.80;;;;;;;10.42;34.18;96813.44;5135148;27;20301;-89
2022/02/08 15:25:31;;;;;;;2.50;0.70;;;;;;;10.34;34.67;96824.47;5136124;27;20222;-86
2022/02/08 15:28:02;;;;;;;0.60;0.60;;;;;;;10.22;34.43;96817.06;5135775;27;20219;-87
2022/02/08 15:30:28;;;;;;;0.60;0.60;;;;;;;10.15;34.84;96816.00;5135777;27;20202;-87
2022/02/08 15:32:55;;;;;;;0.70;0.70;;;;;;;10.10;35.27;96819.00;5135431;27;20206;-83
2022/02/08 15:35:21;;;;;;;1.70;0.70;;;;;;;10.01;34.76;96817.28;5134948;27;20222;-86
2022/02/08 15:37:50;;;;;;;2.67;0.87;;;;;;;9.95;35.50;96816.09;5133450;27;20247;-87
2022/02/08 15:40:19;;;;;;;0.80;0.70;;;;;;;10.00;35.94;96816.50;5114487;28;20292;-87
2022/02/08 15:42:46;;;;;;;1.00;0.90;;;;;;;9.98;36.35;96820.97;5114979;28;20290;-89
2022/02/08 15:45:19;;;;;;;1.77;0.80;;;;;;;10.01;36.61;96825.81;5109454;28;20231;-86
2022/02/08 15:47:45;;;;;;;1.27;0.80;;;;;;;9.91;36.73;96822.47;5094412;28;20787;-87
2022/02/08 15:50:17;;;;;;;2.53;0.80;;;;;;;9.85;36.78;96819.66;5093686;28;20702;-87
2022/02/08 15:55:48;;;;;;;0.90;0.80;;;;;;;9.75;36.80;96824.84;5128340;27;20570;-87
2022/02/08 15:58:25;;;;;;;1.07;0.80;;;;;;;9.75;37.17;96826.59;5128675;28;20842;-88
2022/02/08 16:01:06;;;;;;;0.73;0.70;;;;;;;9.79;36.80;96831.34;5129042;28;20202;-89
2022/02/08 16:06:54;;;;;;;20.33;16.80;;;;;;;9.76;37.34;96828.22;5115516;27;20597;-87